createdAt,value
2016-12-30T00:00:23.525Z,3.23
2016-12-30T00:01:23.540Z,3.34
2016-12-30T00:02:23.947Z,3.25
2016-12-30T00:03:24.475Z,3.31
2016-12-30T00:04:23.972Z,3.26
2016-12-30T00:05:23.986Z,3.4
2016-12-30T00:06:24.413Z,3.36
2016-12-30T00:07:24.025Z,3.4
2016-12-30T00:08:24.429Z,3.37
2016-12-30T00:09:23.639Z,3.44
2016-12-30T00:10:24.445Z,3.44
2016-12-30T00:11:24.455Z,3.44
2016-12-30T00:12:23.673Z,3.44
2016-12-30T00:13:24.584Z,3.36
2016-12-30T00:14:24.496Z,3.36
2016-12-30T00:15:24.110Z,3.5
2016-12-30T00:16:24.119Z,3.5
2016-12-30T00:17:24.547Z,3.53
2016-12-30T00:18:24.160Z,3.48
2016-12-30T00:19:24.155Z,3.53
2016-12-30T00:20:23.771Z,3.48
2016-12-30T00:21:24.581Z,3.55
2016-12-30T00:22:24.202Z,3.5
2016-12-30T00:23:24.706Z,3.51
2016-12-30T00:24:24.217Z,3.53
2016-12-30T00:25:24.240Z,3.45
2016-12-30T00:26:23.843Z,3.47
2016-12-30T00:27:23.868Z,3.5
2016-12-30T00:28:24.266Z,3.45
2016-12-30T00:29:24.306Z,3.4
2016-12-30T00:30:23.891Z,3.16
2016-12-30T00:31:23.904Z,3.22
2016-12-30T00:32:24.317Z,3.21
2016-12-30T00:33:24.029Z,3.14
2016-12-30T00:34:23.948Z,3.07
2016-12-30T00:35:24.353Z,2.95
2016-12-30T00:36:24.763Z,3.04
2016-12-30T00:37:23.976Z,3.04
2016-12-30T00:38:23.988Z,3.05
2016-12-30T00:39:24.000Z,2.97
2016-12-30T00:40:24.409Z,3.04
2016-12-30T00:41:24.426Z,3.13
2016-12-30T00:42:24.834Z,2.95
2016-12-30T00:43:24.165Z,2.95
2016-12-30T00:44:24.467Z,2.9
2016-12-30T00:45:24.071Z,2.85
2016-12-30T00:46:24.484Z,2.9
2016-12-30T00:47:24.095Z,2.95
2016-12-30T00:48:24.508Z,2.86
2016-12-30T00:49:24.124Z,2.79
2016-12-30T00:50:24.530Z,2.71
2016-12-30T00:51:24.944Z,2.74
2016-12-30T00:52:24.956Z,2.71
2016-12-30T00:53:24.687Z,2.8
2016-12-30T00:54:24.180Z,2.75
2016-12-30T00:55:24.192Z,2.82
2016-12-30T00:56:25.042Z,2.71
2016-12-30T00:57:25.012Z,2.67
2016-12-30T00:58:24.246Z,2.77
2016-12-30T00:59:39.127Z,2.68
2016-12-30T01:00:24.651Z,2.72
2016-12-30T01:01:24.265Z,2.65
2016-12-30T01:02:24.671Z,2.67
2016-12-30T01:03:24.785Z,2.74
2016-12-30T01:04:24.701Z,2.85
2016-12-30T01:05:24.711Z,2.85
2016-12-30T01:06:24.720Z,2.97
2016-12-30T01:07:24.335Z,2.89
2016-12-30T01:08:25.152Z,2.89
2016-12-30T01:09:25.155Z,2.95
2016-12-30T01:10:24.772Z,3.04
2016-12-30T01:11:24.383Z,3.05
2016-12-30T01:12:24.793Z,3.01
2016-12-30T01:13:24.909Z,3.1
2016-12-30T01:14:24.820Z,3.05
2016-12-30T01:15:24.833Z,3.04
2016-12-30T01:16:25.243Z,3.11
2016-12-30T01:17:24.454Z,2.98
2016-12-30T01:18:24.864Z,2.92
2016-12-30T01:19:24.474Z,2.68
2016-12-30T01:20:25.285Z,2.8
2016-12-30T01:21:24.897Z,2.72
2016-12-30T01:22:24.915Z,2.75
2016-12-30T01:23:24.924Z,2.68
2016-12-30T01:24:24.942Z,2.75
2016-12-30T01:25:25.357Z,2.68
2016-12-30T01:26:24.566Z,2.83
2016-12-30T01:27:24.970Z,2.86
2016-12-30T01:28:24.682Z,2.8
2016-12-30T01:29:24.991Z,2.79
2016-12-30T01:30:25.402Z,2.97
2016-12-30T01:31:25.023Z,2.86
2016-12-30T01:32:25.429Z,2.77
2016-12-30T01:33:24.646Z,2.89
2016-12-30T01:34:25.053Z,2.9
2016-12-30T01:35:25.068Z,2.75
2016-12-30T01:36:25.480Z,2.71
2016-12-30T01:37:25.092Z,2.87
2016-12-30T01:38:25.101Z,2.92
2016-12-30T01:39:25.508Z,2.97
2016-12-30T01:40:25.525Z,2.9
2016-12-30T01:41:25.135Z,2.92
2016-12-30T01:42:24.752Z,2.89
2016-12-30T01:43:24.764Z,2.9
2016-12-30T01:44:25.173Z,2.83
2016-12-30T01:45:25.585Z,2.74
2016-12-30T01:46:25.196Z,2.85
2016-12-30T01:47:25.207Z,2.8
2016-12-30T01:48:25.218Z,2.83
2016-12-30T01:49:25.626Z,2.86
2016-12-30T01:50:25.641Z,2.8
2016-12-30T01:51:25.253Z,2.83
2016-12-30T01:52:24.865Z,2.95
2016-12-30T01:53:25.296Z,2.87
2016-12-30T01:54:24.911Z,2.86
2016-12-30T01:55:25.303Z,2.83
2016-12-30T01:56:25.717Z,2.74
2016-12-30T01:57:24.923Z,2.71
2016-12-30T01:58:25.341Z,2.68
2016-12-30T01:59:25.745Z,2.74
2016-12-30T02:00:25.359Z,2.86
2016-12-30T02:01:25.375Z,2.89
2016-12-30T02:02:25.781Z,2.77
2016-12-30T02:03:24.997Z,2.83
2016-12-30T02:04:25.407Z,2.85
2016-12-30T02:05:25.443Z,2.86
2016-12-30T02:06:25.031Z,2.87
2016-12-30T02:07:25.440Z,2.83
2016-12-30T02:08:25.454Z,2.9
2016-12-30T02:09:25.469Z,2.85
2016-12-30T02:10:25.873Z,2.74
2016-12-30T02:11:25.487Z,2.77
2016-12-30T02:12:25.902Z,2.85
2016-12-30T02:13:25.123Z,2.85
2016-12-30T02:14:25.123Z,2.75
2016-12-30T02:15:25.536Z,2.75
2016-12-30T02:16:25.546Z,2.8
2016-12-30T02:17:25.161Z,2.74
2016-12-30T02:18:25.578Z,2.74
2016-12-30T02:19:25.592Z,2.68
2016-12-30T02:20:25.595Z,2.71
2016-12-30T02:21:25.217Z,2.65
2016-12-30T02:22:25.229Z,2.77
2016-12-30T02:23:25.625Z,2.71
2016-12-30T02:24:26.036Z,2.62
2016-12-30T02:25:26.063Z,2.61
2016-12-30T02:26:25.264Z,2.57
2016-12-30T02:27:26.078Z,2.67
2016-12-30T02:28:26.097Z,2.86
2016-12-30T02:29:25.707Z,2.77
2016-12-30T02:30:25.712Z,2.87
2016-12-30T02:31:26.117Z,2.71
2016-12-30T02:32:25.332Z,2.65
2016-12-30T02:33:25.761Z,2.69
2016-12-30T02:34:25.764Z,2.74
2016-12-30T02:35:25.366Z,2.68
2016-12-30T02:36:25.392Z,2.64
2016-12-30T02:37:25.391Z,2.67
2016-12-30T02:38:25.400Z,2.68
2016-12-30T02:39:26.223Z,2.61
2016-12-30T02:40:25.830Z,2.46
2016-12-30T02:41:25.460Z,2.44
2016-12-30T02:42:25.878Z,2.35
2016-12-30T02:43:25.856Z,2.38
2016-12-30T02:44:25.486Z,2.5
2016-12-30T02:45:26.279Z,2.57
2016-12-30T02:46:25.896Z,2.65
2016-12-30T02:47:25.906Z,2.65
2016-12-30T02:48:26.318Z,2.61
2016-12-30T02:49:25.927Z,2.6
2016-12-30T02:50:26.350Z,2.5
2016-12-30T02:51:25.953Z,2.54
2016-12-30T02:52:26.364Z,2.47
2016-12-30T02:53:25.587Z,2.42
2016-12-30T02:54:26.385Z,2.5
2016-12-30T02:55:26.009Z,2.6
2016-12-30T02:56:25.693Z,2.57
2016-12-30T02:57:26.034Z,2.56
2016-12-30T02:58:26.045Z,2.35
2016-12-30T02:59:26.044Z,2.46
2016-12-30T03:00:26.057Z,2.38
2016-12-30T03:01:25.670Z,2.39
2016-12-30T03:02:26.077Z,2.42
2016-12-30T03:03:26.088Z,2.51
2016-12-30T03:04:25.706Z,2.43
2016-12-30T03:05:26.510Z,2.46
2016-12-30T03:06:26.536Z,2.47
2016-12-30T03:07:25.736Z,2.36
2016-12-30T03:08:25.751Z,2.47
2016-12-30T03:09:26.571Z,2.53
2016-12-30T03:10:26.165Z,2.54
2016-12-30T03:11:25.815Z,2.49
2016-12-30T03:12:26.590Z,2.35
2016-12-30T03:13:26.216Z,2.33
2016-12-30T03:14:26.221Z,2.32
2016-12-30T03:15:26.227Z,2.31
2016-12-30T03:16:25.884Z,2.42
2016-12-30T03:17:25.853Z,2.46
2016-12-30T03:18:25.863Z,2.5
2016-12-30T03:19:26.671Z,2.54
2016-12-30T03:20:25.881Z,2.39
2016-12-30T03:21:26.294Z,2.35
2016-12-30T03:22:26.306Z,2.38
2016-12-30T03:23:25.921Z,2.43
2016-12-30T03:24:26.735Z,2.39
2016-12-30T03:25:25.953Z,2.38
2016-12-30T03:26:26.009Z,2.42
2016-12-30T03:27:26.361Z,2.39
2016-12-30T03:28:26.775Z,2.44
2016-12-30T03:29:26.787Z,2.32
2016-12-30T03:30:26.798Z,2.35
2016-12-30T03:31:26.014Z,2.36
2016-12-30T03:32:26.020Z,2.31
2016-12-30T03:33:26.453Z,2.26
2016-12-30T03:34:26.443Z,2.17
2016-12-30T03:35:26.080Z,2.25
2016-12-30T03:36:26.079Z,2.07
2016-12-30T03:37:26.501Z,2.13
2016-12-30T03:38:26.488Z,2.17
2016-12-30T03:39:26.908Z,2.26
2016-12-30T03:40:26.520Z,2.33
2016-12-30T03:41:26.921Z,2.17
2016-12-30T03:42:26.544Z,2.18
2016-12-30T03:43:26.555Z,2.11
2016-12-30T03:44:26.565Z,1.89
2016-12-30T03:45:26.964Z,1.73
2016-12-30T03:46:26.576Z,1.74
2016-12-30T03:47:26.604Z,1.88
2016-12-30T03:48:27.002Z,1.95
2016-12-30T03:49:26.623Z,2.07
2016-12-30T03:50:26.626Z,2.02
2016-12-30T03:51:27.039Z,2.08
2016-12-30T03:52:26.266Z,2.06
2016-12-30T03:53:26.660Z,1.92
2016-12-30T03:54:27.088Z,1.91
2016-12-30T03:55:26.684Z,1.85
2016-12-30T03:56:27.090Z,1.92
2016-12-30T03:57:26.703Z,1.85
2016-12-30T03:58:26.355Z,1.94
2016-12-30T03:59:27.123Z,2.07
2016-12-30T04:00:26.734Z,2.04
2016-12-30T04:01:26.752Z,2.15
2016-12-30T04:02:27.158Z,2.15
2016-12-30T04:03:26.767Z,2.11
2016-12-30T04:04:26.782Z,1.99
2016-12-30T04:05:27.197Z,1.92
2016-12-30T04:06:26.431Z,1.95
2016-12-30T04:07:27.217Z,2.06
2016-12-30T04:08:26.437Z,2.08
2016-12-30T04:09:26.452Z,2.08
2016-12-30T04:10:27.245Z,2.13
2016-12-30T04:11:26.460Z,1.91
2016-12-30T04:12:26.867Z,1.78
2016-12-30T04:13:26.880Z,1.94
2016-12-30T04:14:26.894Z,2.07
2016-12-30T04:15:26.505Z,2.1
2016-12-30T04:16:26.916Z,2.04
2016-12-30T04:17:26.927Z,1.97
2016-12-30T04:18:26.937Z,1.91
2016-12-30T04:19:26.952Z,1.94
2016-12-30T04:20:26.957Z,2.08
2016-12-30T04:21:26.574Z,2.04
2016-12-30T04:22:27.383Z,1.88
2016-12-30T04:23:27.002Z,1.81
2016-12-30T04:24:27.003Z,1.85
2016-12-30T04:25:27.013Z,1.77
2016-12-30T04:26:26.638Z,1.66
2016-12-30T04:27:27.049Z,1.76
2016-12-30T04:28:27.064Z,1.74
2016-12-30T04:29:26.677Z,1.74
2016-12-30T04:30:41.561Z,1.78
2016-12-30T04:31:27.081Z,1.68
2016-12-30T04:32:26.701Z,1.71
2016-12-30T04:33:27.109Z,1.71
2016-12-30T04:34:26.714Z,1.7
2016-12-30T04:35:26.723Z,1.73
2016-12-30T04:36:26.731Z,1.73
2016-12-30T04:37:27.575Z,1.68
2016-12-30T04:38:26.785Z,1.63
2016-12-30T04:39:27.172Z,1.58
2016-12-30T04:40:26.826Z,1.53
2016-12-30T04:41:27.194Z,1.6
2016-12-30T04:42:27.228Z,1.6
2016-12-30T04:43:27.225Z,1.6
2016-12-30T04:44:27.638Z,1.59
2016-12-30T04:45:27.659Z,1.59
2016-12-30T04:46:27.682Z,1.49
2016-12-30T04:47:27.656Z,1.52
2016-12-30T04:48:27.704Z,1.73
2016-12-30T04:49:27.279Z,1.73
2016-12-30T04:50:27.313Z,1.73
2016-12-30T04:51:27.300Z,1.68
2016-12-30T04:52:27.354Z,1.62
2016-12-30T04:53:26.921Z,1.68
2016-12-30T04:54:27.342Z,1.62
2016-12-30T04:55:27.341Z,1.59
2016-12-30T04:56:26.955Z,1.68
2016-12-30T04:57:27.004Z,1.71
2016-12-30T04:58:27.450Z,1.7
2016-12-30T04:59:26.991Z,1.74
2016-12-30T05:00:27.473Z,1.71
2016-12-30T05:01:27.479Z,1.67
2016-12-30T05:02:27.448Z,1.58
2016-12-30T05:03:27.451Z,1.6
2016-12-30T05:04:27.443Z,1.62
2016-12-30T05:05:27.100Z,1.73
2016-12-30T05:06:27.128Z,1.67
2016-12-30T05:07:27.895Z,1.6
2016-12-30T05:08:27.901Z,1.6
2016-12-30T05:09:27.553Z,1.63
2016-12-30T05:10:27.158Z,1.53
2016-12-30T05:11:27.960Z,1.55
2016-12-30T05:12:27.933Z,1.55
2016-12-30T05:13:27.147Z,1.66
2016-12-30T05:14:27.551Z,1.52
2016-12-30T05:15:27.164Z,1.49
2016-12-30T05:16:27.225Z,1.45
2016-12-30T05:17:28.035Z,1.59
2016-12-30T05:18:27.627Z,1.68
2016-12-30T05:19:27.689Z,1.6
2016-12-30T05:20:27.665Z,1.62
2016-12-30T05:21:27.654Z,1.55
2016-12-30T05:22:27.690Z,1.44
2016-12-30T05:23:27.747Z,1.58
2016-12-30T05:24:27.277Z,1.6
2016-12-30T05:25:27.320Z,1.45
2016-12-30T05:26:28.262Z,1.44
2016-12-30T05:27:28.144Z,1.7
2016-12-30T05:28:27.811Z,1.67
2016-12-30T05:29:28.221Z,1.63
2016-12-30T05:30:27.820Z,1.76
2016-12-30T05:31:28.143Z,1.73
2016-12-30T05:32:27.507Z,1.66
2016-12-30T05:33:27.814Z,1.62
2016-12-30T05:34:28.231Z,1.62
2016-12-30T05:35:27.827Z,1.68
2016-12-30T05:36:27.797Z,1.74
2016-12-30T05:37:28.239Z,1.76
2016-12-30T05:38:27.434Z,1.62
2016-12-30T05:39:27.867Z,1.48
2016-12-30T05:40:27.855Z,1.32
2016-12-30T05:41:28.374Z,1.3
2016-12-30T05:42:27.863Z,1.38
2016-12-30T05:43:27.470Z,1.41
2016-12-30T05:44:27.944Z,1.48
2016-12-30T05:45:27.990Z,1.52
2016-12-30T05:46:27.895Z,1.52
2016-12-30T05:47:27.972Z,1.45
2016-12-30T05:48:28.381Z,1.44
2016-12-30T05:49:28.379Z,1.59
2016-12-30T05:50:28.346Z,1.5
2016-12-30T05:51:27.947Z,1.48
2016-12-30T05:52:27.612Z,1.48
2016-12-30T05:53:28.455Z,1.48
2016-12-30T05:54:28.030Z,1.4
2016-12-30T05:55:27.679Z,1.38
2016-12-30T05:56:27.672Z,1.44
2016-12-30T05:57:28.267Z,1.52
2016-12-30T05:58:28.087Z,1.44
2016-12-30T05:59:28.071Z,1.49
2016-12-30T06:00:27.661Z,1.48
2016-12-30T06:01:28.102Z,1.48
2016-12-30T06:02:28.088Z,1.28
2016-12-30T06:03:28.493Z,1.32
2016-12-30T06:04:28.618Z,1.24
2016-12-30T06:05:28.510Z,1.26
2016-12-30T06:06:28.569Z,1.37
2016-12-30T06:07:28.196Z,1.48
2016-12-30T06:08:28.165Z,1.48
2016-12-30T06:09:28.604Z,1.48
2016-12-30T06:10:28.164Z,1.28
2016-12-30T06:11:28.583Z,1.17
2016-12-30T06:12:28.217Z,1.04
2016-12-30T06:13:28.668Z,1.17
2016-12-30T06:14:28.254Z,1.14
2016-12-30T06:15:28.208Z,1.35
2016-12-30T06:16:28.702Z,1.38
2016-12-30T06:17:28.673Z,1.45
2016-12-30T06:18:28.295Z,1.42
2016-12-30T06:19:28.271Z,1.45
2016-12-30T06:20:28.307Z,1.42
2016-12-30T06:21:27.870Z,1.48
2016-12-30T06:22:28.737Z,1.55
2016-12-30T06:23:27.956Z,1.38
2016-12-30T06:24:27.915Z,1.34
2016-12-30T06:25:27.917Z,1.24
2016-12-30T06:26:28.413Z,1.19
2016-12-30T06:27:27.943Z,1.22
2016-12-30T06:28:28.365Z,1.22
2016-12-30T06:29:28.429Z,1.14
2016-12-30T06:30:28.407Z,1.17
2016-12-30T06:31:28.789Z,1.26
2016-12-30T06:32:28.481Z,1.31
2016-12-30T06:33:28.009Z,1.3
2016-12-30T06:34:28.490Z,1.26
2016-12-30T06:35:28.415Z,1.3
2016-12-30T06:36:28.842Z,1.1
2016-12-30T06:37:28.536Z,1.19
2016-12-30T06:38:28.495Z,1.28
2016-12-30T06:39:28.585Z,1.31
2016-12-30T06:40:28.906Z,1.34
2016-12-30T06:41:28.469Z,1.26
2016-12-30T06:42:28.099Z,1.38
2016-12-30T06:43:28.175Z,1.26
2016-12-30T06:44:28.533Z,1.19
2016-12-30T06:45:28.167Z,1.16
2016-12-30T06:46:28.208Z,1.16
2016-12-30T06:47:28.554Z,1.17
2016-12-30T06:48:28.568Z,0.99
2016-12-30T06:49:28.238Z,1.16
2016-12-30T06:50:29.021Z,1.08
2016-12-30T06:51:28.609Z,1.13
2016-12-30T06:52:28.628Z,1.22
2016-12-30T06:53:28.252Z,1.13
2016-12-30T06:54:28.628Z,1.14
2016-12-30T06:55:28.212Z,1.12
2016-12-30T06:56:28.649Z,1.08
2016-12-30T06:57:29.036Z,1.14
2016-12-30T06:58:28.699Z,1.3
2016-12-30T06:59:28.682Z,1.19
2016-12-30T07:00:28.290Z,1.13
2016-12-30T07:01:29.160Z,1.23
2016-12-30T07:02:28.364Z,1.22
2016-12-30T07:03:28.733Z,1.26
2016-12-30T07:04:28.724Z,1.17
2016-12-30T07:05:28.785Z,1.2
2016-12-30T07:06:28.326Z,1.28
2016-12-30T07:07:29.199Z,1.3
2016-12-30T07:08:28.826Z,1.34
2016-12-30T07:09:28.420Z,1.28
2016-12-30T07:10:28.364Z,1.28
2016-12-30T07:11:29.296Z,1.3
2016-12-30T07:12:28.785Z,1.24
2016-12-30T07:13:28.809Z,1.32
2016-12-30T07:14:29.208Z,1.34
2016-12-30T07:15:28.926Z,1.32
2016-12-30T07:16:29.229Z,1.2
2016-12-30T07:17:28.934Z,1.19
2016-12-30T07:18:28.562Z,1.23
2016-12-30T07:19:28.913Z,1.23
2016-12-30T07:20:29.349Z,1.24
2016-12-30T07:21:28.997Z,1.19
2016-12-30T07:22:28.548Z,1.3
2016-12-30T07:23:29.455Z,1.23
2016-12-30T07:24:28.988Z,1.22
2016-12-30T07:25:28.916Z,1.28
2016-12-30T07:26:29.026Z,1.2
2016-12-30T07:27:29.390Z,1.23
2016-12-30T07:28:28.619Z,1.26
2016-12-30T07:29:29.407Z,1.26
2016-12-30T07:30:29.005Z,1.23
2016-12-30T07:31:28.986Z,1.19
2016-12-30T07:32:28.594Z,1.13
2016-12-30T07:33:29.017Z,1.16
2016-12-30T07:34:29.463Z,1.14
2016-12-30T07:35:29.019Z,1.17
2016-12-30T07:36:29.469Z,1.22
2016-12-30T07:37:29.532Z,1.16
2016-12-30T07:38:29.097Z,1.24
2016-12-30T07:39:29.114Z,1.26
2016-12-30T07:40:29.116Z,1.14
2016-12-30T07:41:29.510Z,1.23
2016-12-30T07:42:29.101Z,1.2
2016-12-30T07:43:29.592Z,1.28
2016-12-30T07:44:29.601Z,1.22
2016-12-30T07:45:29.152Z,1.19
2016-12-30T07:46:29.558Z,1.2
2016-12-30T07:47:28.790Z,1.35
2016-12-30T07:48:29.607Z,1.23
2016-12-30T07:49:29.226Z,1.19
2016-12-30T07:50:29.619Z,1.31
2016-12-30T07:51:28.837Z,1.28
2016-12-30T07:52:29.254Z,1.34
2016-12-30T07:53:29.663Z,1.32
2016-12-30T07:54:29.241Z,1.3
2016-12-30T07:55:29.264Z,1.3
2016-12-30T07:56:29.701Z,1.32
2016-12-30T07:57:28.935Z,1.45
2016-12-30T07:58:29.278Z,1.41
2016-12-30T07:59:29.316Z,1.4
2016-12-30T08:00:29.462Z,1.4
2016-12-30T08:01:29.351Z,1.42
2016-12-30T08:02:29.348Z,1.44
2016-12-30T08:03:29.771Z,1.49
2016-12-30T08:04:29.517Z,1.5
2016-12-30T08:05:28.931Z,1.49
2016-12-30T08:06:29.791Z,1.49
2016-12-30T08:07:29.400Z,1.48
2016-12-30T08:08:28.996Z,1.44
2016-12-30T08:09:29.836Z,1.48
2016-12-30T08:10:29.421Z,1.6
2016-12-30T08:11:29.842Z,1.5
2016-12-30T08:12:29.056Z,1.45
2016-12-30T08:13:29.088Z,1.56
2016-12-30T08:14:29.119Z,1.56
2016-12-30T08:15:29.113Z,1.68
2016-12-30T08:16:29.880Z,1.66
2016-12-30T08:17:29.852Z,1.58
2016-12-30T08:18:29.527Z,1.6
2016-12-30T08:19:29.570Z,1.63
2016-12-30T08:20:29.591Z,1.62
2016-12-30T08:21:29.157Z,1.58
2016-12-30T08:22:29.572Z,1.71
2016-12-30T08:23:29.571Z,1.6
2016-12-30T08:24:29.180Z,1.67
2016-12-30T08:25:29.566Z,1.67
2016-12-30T08:26:29.555Z,1.68
2016-12-30T08:27:29.636Z,1.68
2016-12-30T08:28:29.759Z,1.62
2016-12-30T08:29:30.064Z,1.62
2016-12-30T08:30:29.245Z,1.68
2016-12-30T08:31:29.286Z,1.66
2016-12-30T08:32:30.159Z,1.66
2016-12-30T08:33:29.672Z,1.68
2016-12-30T08:34:29.366Z,1.7
2016-12-30T08:35:29.702Z,1.74
2016-12-30T08:36:29.767Z,1.74
2016-12-30T08:37:29.732Z,1.7
2016-12-30T08:38:30.183Z,1.89
2016-12-30T08:39:29.809Z,1.88
2016-12-30T08:40:30.201Z,1.91
2016-12-30T08:41:29.815Z,1.91
2016-12-30T08:42:29.731Z,1.92
2016-12-30T08:43:29.856Z,1.89
2016-12-30T08:44:30.208Z,2
2016-12-30T08:45:29.506Z,2.02
2016-12-30T08:46:30.213Z,2.06
2016-12-30T08:47:29.392Z,2.06
2016-12-30T08:48:30.261Z,2.07
2016-12-30T08:49:30.344Z,2.13
2016-12-30T08:50:29.466Z,2.11
2016-12-30T08:51:30.287Z,2.18
2016-12-30T08:52:29.830Z,2.15
2016-12-30T08:53:29.918Z,2.17
2016-12-30T08:54:29.447Z,2.2
2016-12-30T08:55:30.095Z,2.26
2016-12-30T08:56:44.814Z,2.22
2016-12-30T08:57:29.978Z,2.24
2016-12-30T08:58:30.440Z,2.22
2016-12-30T08:59:29.950Z,2.22
2016-12-30T09:00:29.559Z,2.26
2016-12-30T09:01:29.948Z,2.18
2016-12-30T09:02:29.988Z,2.36
2016-12-30T09:03:30.049Z,2.31
2016-12-30T09:04:29.561Z,2.32
2016-12-30T09:05:29.981Z,2.36
2016-12-30T09:06:29.596Z,2.42
2016-12-30T09:07:29.607Z,2.53
2016-12-30T09:08:29.610Z,2.39
2016-12-30T09:09:30.028Z,2.35
2016-12-30T09:10:29.656Z,2.25
2016-12-30T09:11:30.058Z,2.32
2016-12-30T09:12:30.531Z,2.22
2016-12-30T09:13:30.069Z,2.2
2016-12-30T09:14:30.100Z,2.22
2016-12-30T09:15:30.080Z,2.29
2016-12-30T09:16:30.098Z,2.35
2016-12-30T09:17:30.528Z,2.38
2016-12-30T09:18:30.564Z,2.51
2016-12-30T09:19:29.757Z,2.54
2016-12-30T09:20:30.143Z,2.67
2016-12-30T09:21:29.746Z,2.89
2016-12-30T09:22:30.618Z,3.55
2016-12-30T09:23:29.783Z,4.4
2016-12-30T09:24:29.793Z,4.59
2016-12-30T09:25:30.623Z,4.63
2016-12-30T09:26:29.865Z,4.6
2016-12-30T09:27:29.849Z,4.56
2016-12-30T09:28:30.264Z,4.58
2016-12-30T09:29:29.841Z,4.82
2016-12-30T09:30:30.289Z,5.15
2016-12-30T09:31:30.325Z,5.61
2016-12-30T09:32:30.286Z,5.83
2016-12-30T09:33:30.345Z,6.01
2016-12-30T09:34:29.922Z,6.14
2016-12-30T09:35:29.950Z,6.07
2016-12-30T09:36:30.729Z,6.35
2016-12-30T09:37:30.368Z,6.77
2016-12-30T09:38:30.769Z,7.42
2016-12-30T09:39:29.974Z,8.15
2016-12-30T09:40:29.985Z,8.33
2016-12-30T09:41:30.797Z,8.36
2016-12-30T09:42:30.419Z,8.44
2016-12-30T09:43:30.029Z,8.58
2016-12-30T09:44:30.082Z,8.49
2016-12-30T09:45:30.480Z,8.55
2016-12-30T09:46:30.077Z,8.49
2016-12-30T09:47:30.893Z,8.38
2016-12-30T09:48:30.525Z,8.31
2016-12-30T09:49:30.522Z,8.42
2016-12-30T09:51:30.555Z,8.63
2016-12-30T09:52:31.003Z,8.76
2016-12-30T09:53:31.000Z,8.78
2016-12-30T09:54:30.200Z,8.89
2016-12-30T09:55:31.047Z,8.99
2016-12-30T09:56:31.055Z,9.18
2016-12-30T09:57:30.270Z,9.29
2016-12-30T09:58:30.268Z,9.37
2016-12-30T09:59:30.717Z,9.4
2016-12-30T10:00:30.728Z,9.51
2016-12-30T10:01:30.722Z,9.55
2016-12-30T10:02:30.759Z,9.66
2016-12-30T10:03:30.759Z,9.65
2016-12-30T10:04:31.178Z,9.74
2016-12-30T10:05:31.210Z,9.89
2016-12-30T10:06:31.239Z,9.97
2016-12-30T10:07:30.850Z,9.98
2016-12-30T10:08:30.471Z,9.83
2016-12-30T10:09:30.887Z,9.4
2016-12-30T10:10:31.280Z,9.28
2016-12-30T10:11:31.308Z,8.97
2016-12-30T10:12:30.555Z,8.7
2016-12-30T10:13:30.946Z,8.51
2016-12-30T10:14:30.565Z,8.63
2016-12-30T10:15:31.368Z,8.99
2016-12-30T10:16:30.997Z,9.31
2016-12-30T10:17:31.408Z,9.5
2016-12-30T10:18:31.187Z,9.69
2016-12-30T10:19:31.469Z,9.74
2016-12-30T10:20:30.671Z,9.92
2016-12-30T10:21:31.622Z,9.89
2016-12-30T10:22:31.096Z,10.07
2016-12-30T10:23:31.552Z,10.05
2016-12-30T10:24:30.755Z,10.22
2016-12-30T10:25:31.565Z,10.23
2016-12-30T10:26:31.569Z,10.28
2016-12-30T10:27:30.808Z,10.37
2016-12-30T10:28:31.209Z,10.46
2016-12-30T10:29:31.225Z,10.48
2016-12-30T10:30:31.253Z,10.46
2016-12-30T10:31:31.704Z,10.53
2016-12-30T10:32:30.891Z,10.61
2016-12-30T10:33:31.296Z,10.4
2016-12-30T10:34:31.726Z,10.61
2016-12-30T10:35:31.328Z,10.56
2016-12-30T10:36:31.784Z,10.78
2016-12-30T10:37:31.397Z,10.89
2016-12-30T10:38:31.401Z,10.96
2016-12-30T10:39:31.406Z,10.92
2016-12-30T10:40:31.441Z,10.75
2016-12-30T10:41:32.058Z,10.34
2016-12-30T10:42:31.468Z,10.15
2016-12-30T10:43:31.089Z,10.38
2016-12-30T10:44:31.496Z,10.54
2016-12-30T10:45:31.909Z,10.69
2016-12-30T10:46:31.141Z,10.86
2016-12-30T10:47:31.182Z,10.89
2016-12-30T10:48:31.173Z,10.97
2016-12-30T10:49:31.978Z,11
2016-12-30T10:50:31.602Z,11.11
2016-12-30T10:51:31.222Z,10.99
2016-12-30T10:52:31.239Z,10.33
2016-12-30T10:53:31.653Z,9.72
2016-12-30T10:54:31.735Z,9.4
2016-12-30T10:55:31.702Z,9.14
2016-12-30T10:56:31.311Z,9.14
2016-12-30T10:57:31.328Z,8.97
2016-12-30T10:58:32.200Z,9.02
2016-12-30T10:59:31.766Z,9.08
2016-12-30T11:00:32.191Z,9.28
2016-12-30T11:01:31.396Z,9.61
2016-12-30T11:02:31.814Z,9.76
2016-12-30T11:03:31.461Z,9.86
2016-12-30T11:04:32.271Z,9.95
2016-12-30T11:05:31.869Z,9.95
2016-12-30T11:06:31.892Z,10.01
2016-12-30T11:07:31.929Z,10.1
2016-12-30T11:08:32.370Z,10.26
2016-12-30T11:09:31.941Z,10.22
2016-12-30T11:10:31.587Z,10.12
2016-12-30T11:11:32.016Z,9.97
2016-12-30T11:12:32.037Z,10.12
2016-12-30T11:13:32.007Z,10.37
2016-12-30T11:14:31.638Z,10.53
2016-12-30T11:15:31.644Z,10.69
2016-12-30T11:16:32.066Z,10.22
2016-12-30T11:17:32.190Z,10.07
2016-12-30T11:18:32.660Z,10.48
2016-12-30T11:19:32.150Z,10.64
2016-12-30T11:20:32.531Z,10.69
2016-12-30T11:21:32.596Z,10.9
2016-12-30T11:22:31.795Z,10.94
2016-12-30T11:23:32.196Z,11.05
2016-12-30T11:24:32.198Z,11.05
2016-12-30T11:25:32.239Z,11.1
2016-12-30T11:26:32.643Z,11.3
2016-12-30T11:27:32.661Z,11.27
2016-12-30T11:28:32.677Z,11.27
2016-12-30T11:29:32.683Z,11.19
2016-12-30T11:30:32.302Z,11.23
2016-12-30T11:31:31.929Z,11.25
2016-12-30T11:32:31.943Z,11.26
2016-12-30T11:33:32.417Z,11.27
2016-12-30T11:34:31.971Z,11.3
2016-12-30T11:35:32.443Z,11.5
2016-12-30T11:36:32.005Z,11.5
2016-12-30T11:37:32.825Z,11.5
2016-12-30T11:38:32.457Z,11.47
2016-12-30T11:39:32.495Z,11.57
2016-12-30T11:40:32.891Z,11.6
2016-12-30T11:41:32.918Z,11.59
2016-12-30T11:42:32.111Z,11.55
2016-12-30T11:43:32.954Z,11.68
2016-12-30T11:44:32.946Z,11.83
2016-12-30T11:45:32.165Z,11.91
2016-12-30T11:46:32.603Z,11.81
2016-12-30T11:47:32.633Z,11.81
2016-12-30T11:48:32.245Z,11.86
2016-12-30T11:49:32.652Z,11.86
2016-12-30T11:50:32.272Z,11.87
2016-12-30T11:51:32.282Z,11.59
2016-12-30T11:52:32.691Z,11.35
2016-12-30T11:53:33.112Z,11.17
2016-12-30T11:54:32.329Z,11.35
2016-12-30T11:55:32.759Z,11.51
2016-12-30T11:56:32.377Z,11.6
2016-12-30T11:57:32.810Z,11.77
2016-12-30T11:58:33.202Z,11.81
2016-12-30T11:59:33.270Z,12.06
2016-12-30T12:00:32.441Z,11.99
2016-12-30T12:01:32.852Z,12.09
2016-12-30T12:02:32.506Z,12.21
2016-12-30T12:03:33.317Z,12.28
2016-12-30T12:04:33.315Z,12.25
2016-12-30T12:05:32.924Z,12.22
2016-12-30T12:06:32.964Z,12.24
2016-12-30T12:07:32.591Z,12.37
2016-12-30T12:08:33.381Z,12.37
2016-12-30T12:09:33.420Z,12.45
2016-12-30T12:10:32.615Z,12.36
2016-12-30T12:11:33.433Z,12.24
2016-12-30T12:12:32.690Z,12.02
2016-12-30T12:13:33.471Z,11.12
2016-12-30T12:14:33.087Z,10.81
2016-12-30T12:15:33.129Z,10.23
2016-12-30T12:16:32.746Z,10.05
2016-12-30T12:17:33.145Z,10.05
2016-12-30T12:18:32.792Z,10.04
2016-12-30T12:19:33.600Z,9.99
2016-12-30T12:20:33.598Z,10.23
2016-12-30T12:21:33.243Z,10.57
2016-12-30T12:22:33.639Z,10.96
2016-12-30T12:23:33.257Z,11.14
2016-12-30T12:24:33.276Z,11.27
2016-12-30T12:25:33.316Z,11.4
2016-12-30T12:26:32.916Z,11.5
2016-12-30T12:27:33.744Z,11.57
2016-12-30T12:28:32.947Z,11.68
2016-12-30T12:29:33.771Z,11.65
2016-12-30T12:30:32.999Z,11.75
2016-12-30T12:31:33.798Z,11.91
2016-12-30T12:32:33.017Z,12.02
2016-12-30T12:33:33.443Z,12.04
2016-12-30T12:34:33.454Z,12.07
2016-12-30T12:35:33.471Z,12.09
2016-12-30T12:36:33.887Z,12.17
2016-12-30T12:37:33.509Z,12.24
2016-12-30T12:38:33.526Z,12.28
2016-12-30T12:39:33.547Z,12.35
2016-12-30T12:40:33.182Z,12.47
2016-12-30T12:41:33.582Z,12.55
2016-12-30T12:42:33.622Z,12.62
2016-12-30T12:43:33.619Z,12.75
2016-12-30T12:44:33.235Z,12.82
2016-12-30T12:45:33.658Z,12.94
2016-12-30T12:46:33.676Z,12.94
2016-12-30T12:47:34.108Z,12.82
2016-12-30T12:48:33.364Z,12.9
2016-12-30T12:49:33.749Z,13
2016-12-30T12:50:33.354Z,13.03
2016-12-30T12:51:33.814Z,13.01
2016-12-30T12:52:33.384Z,13.03
2016-12-30T12:53:33.427Z,13.11
2016-12-30T12:54:33.951Z,13.2
2016-12-30T12:55:33.975Z,13.27
2016-12-30T12:56:33.901Z,13.23
2016-12-30T12:57:34.306Z,13.28
2016-12-30T12:58:48.391Z,13.31
2016-12-30T12:59:33.966Z,13.33
2016-12-30T13:00:34.349Z,13.3
2016-12-30T13:01:33.964Z,13.33
2016-12-30T13:02:34.381Z,13.3
2016-12-30T13:03:34.396Z,13.35
2016-12-30T13:04:34.007Z,13.38
2016-12-30T13:05:34.072Z,13.35
2016-12-30T13:06:34.092Z,13.46
2016-12-30T13:07:34.483Z,13.46
2016-12-30T13:08:34.090Z,13.57
2016-12-30T13:09:33.721Z,13.63
2016-12-30T13:10:34.177Z,13.6
2016-12-30T13:11:34.170Z,13.56
2016-12-30T13:12:34.192Z,13.57
2016-12-30T13:13:34.254Z,13.56
2016-12-30T13:14:34.250Z,13.56
2016-12-30T13:15:34.222Z,13.28
2016-12-30T13:16:33.854Z,13.33
2016-12-30T13:17:34.266Z,13.33